Великий Устюг

СКИДКИ НА СМАРТФОНЫ!

Карта отелей и гостиниц, располагающихся рядом с аэропортом Великий Устюг :

Великий Устюг Вологодская область 60° 47' 19.0788" N, 46° 15' 37.9188" E
Великий Устюг Вологодская область 60° 47' 19.0788" N, 46° 15' 37.9188" E
Код аэродрома ИКАО
ULWU
Код аэродрома RU
УЛВУ
Координаты
N60.78863° E046.26053°
Превышение над уровнем моря
103
Основная полоса
02/20
Курс магнитный
014,8/194,8
Длина основной ВПП
1300
Ширина основной ВПП
40
Покрытие основной ВПП
Твёрдое (асфальтобетон)
Освещение ВПП
Постоянное
Тип: 
Аэродром
Класс аэродрома: 
Принадлежность: 
ГА
Статус: 
Действующий
Сайт: 
E-mail аэродрома: 
Страна: 
Россия
Регион: 
Вологодская область
Город: 
Дополнительная информация: 
Владелец: Правительство Вологодской области. Аэропорт регионального значения. ДПРС: 545-FG/XS. Эксплуатант: АК «Северсталь», которая обслуживает рейсы на самолетах Як-40 два раза в неделю.

Скидки на навигаторы!

Найти трансфер

С помощью этой формы Вы можете найти трансфер из аэропорта Великий Устюг в город, аэропорт или вокзал:

Погода в аэропортах:

Авиационная погода в Яссах

Регион: 
Погода METAR: 
LRIA 091530Z 35015KT 320V020 9999 VCSH SCT033CB 26/17 Q1019
Время наблюдения
2022-08-09T15:30:00Z
Температура C
26.0
Точка росы
17.0
Направление ветра
350
Скорость ветра (узлы)
15
Метео видимость
6.21
Облачность
SCT
Нижняя граница облачности (футы)
3300
Явления погоды
VCSH
Условия полета
VFR
SCT – разбросанная отдельная облачность;

Авиационная погода в Сургуте

Регион: 
Погода METAR: 
USRR 091430Z 01004MPS 2300 HZ BKN022 24/19 Q1016 R25/CLRD60 TEMPO 1200 HZ RMK OBST OBSC QFE756
Время наблюдения
2022-08-09T14:30:00Z
Температура C
24.0
Точка росы
19.0
Направление ветра
10
Скорость ветра (узлы)
8
Метео видимость
1.43
Облачность
BKN
Нижняя граница облачности (футы)
2200
Явления погоды
HZ
Условия полета
IFR
Аэропорт подробнее: 
BKN – значительная (рассеянная, разорванная) облачность;
HZ – мгла (видимость менее 10 км);

Авиационная погода в Ярославле

Регион: 
Погода METAR: 
UUDL 091530Z 00000MPS 9999 -SHRA BKN036CB 17/15 Q1022 R23/010060 NOSIG RMK QFE758
Время наблюдения
2022-08-09T15:30:00Z
Температура C
17.0
Точка росы
15.0
Направление ветра
0
Скорость ветра (узлы)
0
Метео видимость
6.21
Облачность
BKN
Нижняя граница облачности (футы)
3600
Явления погоды
-SHRA
Условия полета
VFR
Аэропорт подробнее: 
BKN – значительная (рассеянная, разорванная) облачность;
-SHRA - слабый ливневой дождь;

Авиационная погода в аэропорту Семей

Регион: 
Погода METAR: 
UASS 091130Z 31004MPS 280V350 9999 -SHRA SCT040CB 24/14 Q1005 NOSIG RMK QFE735/0981
Время наблюдения
2022-08-09T11:30:00Z
Температура C
24.0
Точка росы
14.0
Направление ветра
310
Скорость ветра (узлы)
8
Метео видимость
6.21
Облачность
SCT
Нижняя граница облачности (футы)
4000
Явления погоды
-SHRA
Условия полета
VFR
Аэропорт подробнее: 
SCT – разбросанная отдельная облачность;
-SHRA - слабый ливневой дождь;